sensor_id;sensor_type;location;lat;lon;timestamp;temperature;humidity
35894;DHT22;21994;48.204;16.516;2024-01-06T00:02:00;2.50;99.90
35894;DHT22;21994;48.204;16.516;2024-01-06T00:04:26;2.50;99.90
35894;DHT22;21994;48.204;16.516;2024-01-06T00:06:52;2.50;99.90
35894;DHT22;21994;48.204;16.516;2024-01-06T00:09:18;2.50;99.90
35894;DHT22;21994;48.204;16.516;2024-01-06T00:11:43;2.60;99.90
35894;DHT22;21994;48.204;16.516;2024-01-06T00:14:09;2.60;99.90
35894;DHT22;21994;48.204;16.516;2024-01-06T00:16:35;2.60;99.90
35894;DHT22;21994;48.204;16.516;2024-01-06T00:19:01;2.60;99.90
35894;DHT22;21994;48.204;16.516;2024-01-06T00:21:27;2.70;99.90
35894;DHT22;21994;48.204;16.516;2024-01-06T00:23:53;2.70;99.90
35894;DHT22;21994;48.204;16.516;2024-01-06T00:26:21;2.70;99.90
35894;DHT22;21994;48.204;16.516;2024-01-06T00:28:47;2.80;99.90
35894;DHT22;21994;48.204;16.516;2024-01-06T00:31:15;3.00;99.90
35894;DHT22;21994;48.204;16.516;2024-01-06T00:33:45;3.00;99.90
35894;DHT22;21994;48.204;16.516;2024-01-06T00:36:11;3.00;99.90
35894;DHT22;21994;48.204;16.516;2024-01-06T00:38:36;3.00;99.90
35894;DHT22;21994;48.204;16.516;2024-01-06T00:41:02;3.10;99.90
35894;DHT22;21994;48.204;16.516;2024-01-06T00:43:28;3.10;99.90
35894;DHT22;21994;48.204;16.516;2024-01-06T00:45:54;3.10;99.90
35894;DHT22;21994;48.204;16.516;2024-01-06T00:48:20;3.10;99.90
35894;DHT22;21994;48.204;16.516;2024-01-06T00:50:46;3.10;99.90
35894;DHT22;21994;48.204;16.516;2024-01-06T00:53:12;3.20;99.90
35894;DHT22;21994;48.204;16.516;2024-01-06T00:55:38;3.20;99.90
35894;DHT22;21994;48.204;16.516;2024-01-06T00:58:04;3.30;99.90
35894;DHT22;21994;48.204;16.516;2024-01-06T01:00:30;3.40;99.90
35894;DHT22;21994;48.204;16.516;2024-01-06T01:02:56;3.50;99.90
35894;DHT22;21994;48.204;16.516;2024-01-06T01:05:22;3.60;99.90
35894;DHT22;21994;48.204;16.516;2024-01-06T01:07:48;3.50;99.90
35894;DHT22;21994;48.204;16.516;2024-01-06T01:10:14;3.50;99.90
35894;DHT22;21994;48.204;16.516;2024-01-06T01:12:40;3.50;99.90
35894;DHT22;21994;48.204;16.516;2024-01-06T01:15:06;3.50;99.90
35894;DHT22;21994;48.204;16.516;2024-01-06T01:17:33;3.60;99.90
35894;DHT22;21994;48.204;16.516;2024-01-06T01:19:59;3.50;99.90
35894;DHT22;21994;48.204;16.516;2024-01-06T01:22:25;3.60;99.90
35894;DHT22;21994;48.204;16.516;2024-01-06T01:24:50;3.60;99.90
35894;DHT22;21994;48.204;16.516;2024-01-06T01:27:16;3.70;99.90
35894;DHT22;21994;48.204;16.516;2024-01-06T01:29:42;3.80;99.90
35894;DHT22;21994;48.204;16.516;2024-01-06T01:32:08;3.80;99.90
35894;DHT22;21994;48.204;16.516;2024-01-06T01:34:34;3.90;99.90
35894;DHT22;21994;48.204;16.516;2024-01-06T01:37:00;3.90;99.90
35894;DHT22;21994;48.204;16.516;2024-01-06T01:39:26;4.00;99.90
35894;DHT22;21994;48.204;16.516;2024-01-06T01:41:52;3.90;99.90
35894;DHT22;21994;48.204;16.516;2024-01-06T01:44:17;4.10;99.90
35894;DHT22;21994;48.204;16.516;2024-01-06T01:46:43;4.10;99.90
35894;DHT22;21994;48.204;16.516;2024-01-06T01:49:09;4.00;99.90
35894;DHT22;21994;48.204;16.516;2024-01-06T01:51:36;3.90;99.90
35894;DHT22;21994;48.204;16.516;2024-01-06T01:54:04;4.00;99.90
35894;DHT22;21994;48.204;16.516;2024-01-06T01:56:31;4.00;99.90
35894;DHT22;21994;48.204;16.516;2024-01-06T01:59:09;4.10;99.90
35894;DHT22;21994;48.204;16.516;2024-01-06T02:01:37;4.20;99.90
35894;DHT22;21994;48.204;16.516;2024-01-06T02:04:04;4.10;99.90
35894;DHT22;21994;48.204;16.516;2024-01-06T02:06:30;4.10;99.90
35894;DHT22;21994;48.204;16.516;2024-01-06T02:08:55;4.00;99.90
35894;DHT22;21994;48.204;16.516;2024-01-06T02:11:21;4.00;99.90
35894;DHT22;21994;48.204;16.516;2024-01-06T02:13:47;3.90;99.90
35894;DHT22;21994;48.204;16.516;2024-01-06T02:16:13;3.90;99.90
35894;DHT22;21994;48.204;16.516;2024-01-06T02:18:39;3.90;99.90
35894;DHT22;21994;48.204;16.516;2024-01-06T02:21:06;3.90;99.90
35894;DHT22;21994;48.204;16.516;2024-01-06T02:23:34;4.00;99.90
35894;DHT22;21994;48.204;16.516;2024-01-06T02:26:00;4.00;99.90
35894;DHT22;21994;48.204;16.516;2024-01-06T02:28:26;4.10;99.90
35894;DHT22;21994;48.204;16.516;2024-01-06T02:30:52;4.20;99.90
35894;DHT22;21994;48.204;16.516;2024-01-06T02:33:18;4.20;99.90
35894;DHT22;21994;48.204;16.516;2024-01-06T02:43:44;4.00;99.90
35894;DHT22;21994;48.204;16.516;2024-01-06T02:46:10;4.00;99.90
35894;DHT22;21994;48.204;16.516;2024-01-06T02:48:36;4.10;99.90
35894;DHT22;21994;48.204;16.516;2024-01-06T02:51:02;4.00;99.90
35894;DHT22;21994;48.204;16.516;2024-01-06T02:53:28;4.20;99.90
35894;DHT22;21994;48.204;16.516;2024-01-06T02:55:54;4.10;99.90
35894;DHT22;21994;48.204;16.516;2024-01-06T02:58:20;4.10;99.90
35894;DHT22;21994;48.204;16.516;2024-01-06T03:00:46;4.10;99.90
35894;DHT22;21994;48.204;16.516;2024-01-06T03:03:12;4.10;99.90
35894;DHT22;21994;48.204;16.516;2024-01-06T03:05:38;4.10;99.90
35894;DHT22;21994;48.204;16.516;2024-01-06T03:08:04;4.00;99.90
35894;DHT22;21994;48.204;16.516;2024-01-06T03:10:30;4.10;99.90
35894;DHT22;21994;48.204;16.516;2024-01-06T03:12:56;4.10;99.90
35894;DHT22;21994;48.204;16.516;2024-01-06T03:15:22;4.00;99.90
35894;DHT22;21994;48.204;16.516;2024-01-06T03:17:48;4.10;99.90
35894;DHT22;21994;48.204;16.516;2024-01-06T03:20:14;4.20;99.90
35894;DHT22;21994;48.204;16.516;2024-01-06T03:22:40;4.40;99.90
35894;DHT22;21994;48.204;16.516;2024-01-06T03:25:06;4.30;99.90
35894;DHT22;21994;48.204;16.516;2024-01-06T03:27:32;4.20;99.90
35894;DHT22;21994;48.204;16.516;2024-01-06T03:29:58;4.20;99.90
35894;DHT22;21994;48.204;16.516;2024-01-06T03:32:24;4.30;99.90
35894;DHT22;21994;48.204;16.516;2024-01-06T03:34:50;4.20;99.90
35894;DHT22;21994;48.204;16.516;2024-01-06T03:37:16;4.20;99.90
35894;DHT22;21994;48.204;16.516;2024-01-06T03:39:41;4.20;99.90
35894;DHT22;21994;48.204;16.516;2024-01-06T03:42:07;4.30;99.90
35894;DHT22;21994;48.204;16.516;2024-01-06T03:44:33;4.20;99.90
35894;DHT22;21994;48.204;16.516;2024-01-06T03:46:59;4.20;99.90
35894;DHT22;21994;48.204;16.516;2024-01-06T03:49:25;4.20;99.90
35894;DHT22;21994;48.204;16.516;2024-01-06T03:51:52;4.30;99.90
35894;DHT22;21994;48.204;16.516;2024-01-06T03:54:17;4.30;99.90
35894;DHT22;21994;48.204;16.516;2024-01-06T03:56:43;4.40;99.90
35894;DHT22;21994;48.204;16.516;2024-01-06T03:59:09;4.40;99.90
35894;DHT22;21994;48.204;16.516;2024-01-06T04:01:35;4.40;99.90
35894;DHT22;21994;48.204;16.516;2024-01-06T04:04:05;4.40;99.90
35894;DHT22;21994;48.204;16.516;2024-01-06T04:06:31;4.30;99.90
35894;DHT22;21994;48.204;16.516;2024-01-06T04:09:00;4.30;99.90
35894;DHT22;21994;48.204;16.516;2024-01-06T04:11:26;4.30;99.90
35894;DHT22;21994;48.204;16.516;2024-01-06T04:13:52;4.30;99.90
35894;DHT22;21994;48.204;16.516;2024-01-06T04:16:18;4.20;99.90
35894;DHT22;21994;48.204;16.516;2024-01-06T04:18:45;4.20;99.90
35894;DHT22;21994;48.204;16.516;2024-01-06T04:21:10;4.30;99.90
35894;DHT22;21994;48.204;16.516;2024-01-06T04:23:37;4.20;99.90
35894;DHT22;21994;48.204;16.516;2024-01-06T04:26:03;4.30;99.90
35894;DHT22;21994;48.204;16.516;2024-01-06T04:28:30;4.30;99.90
35894;DHT22;21994;48.204;16.516;2024-01-06T04:30:56;4.30;99.90
35894;DHT22;21994;48.204;16.516;2024-01-06T04:33:22;4.30;99.90
35894;DHT22;21994;48.204;16.516;2024-01-06T04:35:48;4.30;99.90
35894;DHT22;21994;48.204;16.516;2024-01-06T04:38:14;4.30;99.90
35894;DHT22;21994;48.204;16.516;2024-01-06T04:40:40;4.40;99.90
35894;DHT22;21994;48.204;16.516;2024-01-06T04:43:06;4.40;99.90
35894;DHT22;21994;48.204;16.516;2024-01-06T04:45:32;4.30;99.90
35894;DHT22;21994;48.204;16.516;2024-01-06T04:47:58;4.30;99.90
35894;DHT22;21994;48.204;16.516;2024-01-06T04:50:24;4.40;99.90
35894;DHT22;21994;48.204;16.516;2024-01-06T04:52:50;4.40;99.90
35894;DHT22;21994;48.204;16.516;2024-01-06T04:55:16;4.40;99.90
35894;DHT22;21994;48.204;16.516;2024-01-06T04:57:41;4.40;99.90
35894;DHT22;21994;48.204;16.516;2024-01-06T05:00:08;4.40;99.90
35894;DHT22;21994;48.204;16.516;2024-01-06T05:02:34;4.50;99.90
35894;DHT22;21994;48.204;16.516;2024-01-06T05:05:00;4.50;99.90
35894;DHT22;21994;48.204;16.516;2024-01-06T05:07:26;4.50;99.90
35894;DHT22;21994;48.204;16.516;2024-01-06T05:09:52;4.40;99.90
35894;DHT22;21994;48.204;16.516;2024-01-06T05:12:17;4.40;99.90
35894;DHT22;21994;48.204;16.516;2024-01-06T05:14:43;4.40;99.90
35894;DHT22;21994;48.204;16.516;2024-01-06T05:17:09;4.50;99.90
35894;DHT22;21994;48.204;16.516;2024-01-06T05:19:36;4.50;99.90
35894;DHT22;21994;48.204;16.516;2024-01-06T05:22:02;4.50;99.90
35894;DHT22;21994;48.204;16.516;2024-01-06T05:24:28;4.50;99.90
35894;DHT22;21994;48.204;16.516;2024-01-06T05:26:54;4.50;99.90
35894;DHT22;21994;48.204;16.516;2024-01-06T05:29:20;4.50;99.90
35894;DHT22;21994;48.204;16.516;2024-01-06T05:31:46;4.50;99.90
35894;DHT22;21994;48.204;16.516;2024-01-06T05:34:14;4.40;99.90
35894;DHT22;21994;48.204;16.516;2024-01-06T05:36:40;4.40;99.90
35894;DHT22;21994;48.204;16.516;2024-01-06T05:39:06;4.40;99.90
35894;DHT22;21994;48.204;16.516;2024-01-06T05:41:39;4.40;99.90
35894;DHT22;21994;48.204;16.516;2024-01-06T05:44:06;4.30;99.90
35894;DHT22;21994;48.204;16.516;2024-01-06T05:46:32;4.40;99.90
35894;DHT22;21994;48.204;16.516;2024-01-06T05:48:58;4.30;99.90
35894;DHT22;21994;48.204;16.516;2024-01-06T05:51:25;4.30;99.90
35894;DHT22;21994;48.204;16.516;2024-01-06T05:53:51;4.40;99.90
35894;DHT22;21994;48.204;16.516;2024-01-06T05:56:26;4.40;99.90
35894;DHT22;21994;48.204;16.516;2024-01-06T05:58:53;4.30;99.90
35894;DHT22;21994;48.204;16.516;2024-01-06T06:01:21;4.30;99.90
35894;DHT22;21994;48.204;16.516;2024-01-06T06:03:47;4.30;99.90
35894;DHT22;21994;48.204;16.516;2024-01-06T06:06:13;4.40;99.90
35894;DHT22;21994;48.204;16.516;2024-01-06T06:08:44;4.40;99.90
35894;DHT22;21994;48.204;16.516;2024-01-06T06:11:10;4.40;99.90
35894;DHT22;21994;48.204;16.516;2024-01-06T06:13:45;4.40;99.90
35894;DHT22;21994;48.204;16.516;2024-01-06T06:16:12;4.40;99.90
35894;DHT22;21994;48.204;16.516;2024-01-06T06:18:38;4.30;99.90
35894;DHT22;21994;48.204;16.516;2024-01-06T06:21:05;4.30;99.90
35894;DHT22;21994;48.204;16.516;2024-01-06T06:23:31;4.40;99.90
35894;DHT22;21994;48.204;16.516;2024-01-06T06:25:57;4.30;99.90
35894;DHT22;21994;48.204;16.516;2024-01-06T06:28:25;4.40;99.90
35894;DHT22;21994;48.204;16.516;2024-01-06T06:30:52;4.40;99.90
35894;DHT22;21994;48.204;16.516;2024-01-06T06:33:18;4.40;99.90
35894;DHT22;21994;48.204;16.516;2024-01-06T06:35:44;4.30;99.90
35894;DHT22;21994;48.204;16.516;2024-01-06T06:38:09;4.30;99.90
35894;DHT22;21994;48.204;16.516;2024-01-06T06:40:35;4.40;99.90
35894;DHT22;21994;48.204;16.516;2024-01-06T06:43:01;4.40;99.90
35894;DHT22;21994;48.204;16.516;2024-01-06T06:45:27;4.50;99.90
35894;DHT22;21994;48.204;16.516;2024-01-06T06:47:53;4.40;99.90
35894;DHT22;21994;48.204;16.516;2024-01-06T06:50:19;4.40;99.90
35894;DHT22;21994;48.204;16.516;2024-01-06T06:52:46;4.30;99.90
35894;DHT22;21994;48.204;16.516;2024-01-06T06:55:12;4.40;99.90
35894;DHT22;21994;48.204;16.516;2024-01-06T06:57:39;4.30;99.90
35894;DHT22;21994;48.204;16.516;2024-01-06T07:00:05;4.20;99.90
35894;DHT22;21994;48.204;16.516;2024-01-06T07:02:35;4.30;99.90
35894;DHT22;21994;48.204;16.516;2024-01-06T07:05:00;4.40;99.90
35894;DHT22;21994;48.204;16.516;2024-01-06T07:07:26;4.50;99.90
35894;DHT22;21994;48.204;16.516;2024-01-06T07:09:52;4.40;99.90
35894;DHT22;21994;48.204;16.516;2024-01-06T07:12:18;4.40;99.90
35894;DHT22;21994;48.204;16.516;2024-01-06T07:14:44;4.40;99.90
35894;DHT22;21994;48.204;16.516;2024-01-06T07:17:10;4.30;99.90
35894;DHT22;21994;48.204;16.516;2024-01-06T07:19:36;4.40;99.90
35894;DHT22;21994;48.204;16.516;2024-01-06T07:22:02;4.40;99.90
35894;DHT22;21994;48.204;16.516;2024-01-06T07:24:28;4.40;99.90
35894;DHT22;21994;48.204;16.516;2024-01-06T07:26:54;4.60;99.90
35894;DHT22;21994;48.204;16.516;2024-01-06T07:29:20;4.60;99.90
35894;DHT22;21994;48.204;16.516;2024-01-06T07:31:46;4.50;99.90
35894;DHT22;21994;48.204;16.516;2024-01-06T07:34:12;4.60;99.90
35894;DHT22;21994;48.204;16.516;2024-01-06T07:36:38;4.50;99.90
35894;DHT22;21994;48.204;16.516;2024-01-06T07:39:05;4.50;99.90
35894;DHT22;21994;48.204;16.516;2024-01-06T07:41:31;4.50;99.90
35894;DHT22;21994;48.204;16.516;2024-01-06T07:43:58;4.50;99.90
35894;DHT22;21994;48.204;16.516;2024-01-06T07:46:24;4.60;99.90
35894;DHT22;21994;48.204;16.516;2024-01-06T07:48:50;4.80;99.90
35894;DHT22;21994;48.204;16.516;2024-01-06T07:51:15;4.70;99.90
35894;DHT22;21994;48.204;16.516;2024-01-06T07:53:42;4.80;99.90
35894;DHT22;21994;48.204;16.516;2024-01-06T07:56:08;4.70;99.90
35894;DHT22;21994;48.204;16.516;2024-01-06T07:58:34;4.70;99.90
35894;DHT22;21994;48.204;16.516;2024-01-06T08:01:00;4.80;99.90
35894;DHT22;21994;48.204;16.516;2024-01-06T08:03:27;4.80;99.90
35894;DHT22;21994;48.204;16.516;2024-01-06T08:05:52;4.90;99.90
35894;DHT22;21994;48.204;16.516;2024-01-06T08:08:19;4.80;99.90
35894;DHT22;21994;48.204;16.516;2024-01-06T08:10:46;4.90;99.90
35894;DHT22;21994;48.204;16.516;2024-01-06T08:13:12;4.90;99.90
35894;DHT22;21994;48.204;16.516;2024-01-06T08:15:38;4.90;99.90
35894;DHT22;21994;48.204;16.516;2024-01-06T08:18:04;4.90;99.90
35894;DHT22;21994;48.204;16.516;2024-01-06T08:20:30;4.90;99.90
35894;DHT22;21994;48.204;16.516;2024-01-06T08:22:56;4.90;99.90
35894;DHT22;21994;48.204;16.516;2024-01-06T08:25:22;4.90;99.90
35894;DHT22;21994;48.204;16.516;2024-01-06T08:27:48;4.80;99.90
35894;DHT22;21994;48.204;16.516;2024-01-06T08:30:14;4.80;99.90
35894;DHT22;21994;48.204;16.516;2024-01-06T08:32:40;4.80;99.90
35894;DHT22;21994;48.204;16.516;2024-01-06T08:35:06;4.80;99.90
35894;DHT22;21994;48.204;16.516;2024-01-06T08:37:32;4.80;99.90
35894;DHT22;21994;48.204;16.516;2024-01-06T08:39:58;4.80;99.90
35894;DHT22;21994;48.204;16.516;2024-01-06T08:42:24;4.80;99.90
35894;DHT22;21994;48.204;16.516;2024-01-06T08:44:51;4.80;99.90
35894;DHT22;21994;48.204;16.516;2024-01-06T08:47:17;4.80;99.90
35894;DHT22;21994;48.204;16.516;2024-01-06T08:49:43;4.80;99.90
35894;DHT22;21994;48.204;16.516;2024-01-06T08:52:09;4.90;99.90
35894;DHT22;21994;48.204;16.516;2024-01-06T08:54:35;4.80;99.90
35894;DHT22;21994;48.204;16.516;2024-01-06T08:57:00;4.80;99.90
35894;DHT22;21994;48.204;16.516;2024-01-06T08:59:26;4.90;99.90
35894;DHT22;21994;48.204;16.516;2024-01-06T09:01:52;4.90;99.90
35894;DHT22;21994;48.204;16.516;2024-01-06T09:04:18;4.80;99.90
35894;DHT22;21994;48.204;16.516;2024-01-06T09:06:44;4.80;99.90
35894;DHT22;21994;48.204;16.516;2024-01-06T09:09:12;4.70;99.90
35894;DHT22;21994;48.204;16.516;2024-01-06T09:11:39;4.70;99.90
35894;DHT22;21994;48.204;16.516;2024-01-06T09:14:04;4.70;99.90
35894;DHT22;21994;48.204;16.516;2024-01-06T09:16:30;4.60;99.90
35894;DHT22;21994;48.204;16.516;2024-01-06T09:18:56;4.70;99.90
35894;DHT22;21994;48.204;16.516;2024-01-06T09:21:23;4.60;99.90
35894;DHT22;21994;48.204;16.516;2024-01-06T09:23:48;4.60;99.90
35894;DHT22;21994;48.204;16.516;2024-01-06T09:26:14;4.60;99.90
35894;DHT22;21994;48.204;16.516;2024-01-06T09:28:44;4.50;99.90
35894;DHT22;21994;48.204;16.516;2024-01-06T09:31:10;4.50;99.90
35894;DHT22;21994;48.204;16.516;2024-01-06T09:33:35;4.50;99.90
35894;DHT22;21994;48.204;16.516;2024-01-06T09:36:02;4.50;99.90
35894;DHT22;21994;48.204;16.516;2024-01-06T09:38:28;4.60;99.90
35894;DHT22;21994;48.204;16.516;2024-01-06T09:40:55;4.60;99.90
35894;DHT22;21994;48.204;16.516;2024-01-06T09:43:21;4.60;99.90
35894;DHT22;21994;48.204;16.516;2024-01-06T09:45:58;4.60;99.90
35894;DHT22;21994;48.204;16.516;2024-01-06T09:48:32;4.60;99.90
35894;DHT22;21994;48.204;16.516;2024-01-06T09:51:02;4.60;99.90
35894;DHT22;21994;48.204;16.516;2024-01-06T09:53:33;4.60;99.90
35894;DHT22;21994;48.204;16.516;2024-01-06T09:56:03;4.60;99.90
35894;DHT22;21994;48.204;16.516;2024-01-06T09:58:30;4.60;99.90
35894;DHT22;21994;48.204;16.516;2024-01-06T10:01:00;4.60;99.90
35894;DHT22;21994;48.204;16.516;2024-01-06T10:03:27;4.70;99.90
35894;DHT22;21994;48.204;16.516;2024-01-06T10:05:53;4.60;99.90
35894;DHT22;21994;48.204;16.516;2024-01-06T10:08:19;4.60;99.90
35894;DHT22;21994;48.204;16.516;2024-01-06T10:10:45;4.70;99.90
35894;DHT22;21994;48.204;16.516;2024-01-06T10:13:17;4.60;99.90
35894;DHT22;21994;48.204;16.516;2024-01-06T10:15:43;4.60;99.90
35894;DHT22;21994;48.204;16.516;2024-01-06T10:18:10;4.70;99.90
35894;DHT22;21994;48.204;16.516;2024-01-06T10:20:36;4.60;99.90
35894;DHT22;21994;48.204;16.516;2024-01-06T10:23:05;4.60;99.90
35894;DHT22;21994;48.204;16.516;2024-01-06T10:25:32;4.60;99.90
35894;DHT22;21994;48.204;16.516;2024-01-06T10:28:00;4.60;99.90
35894;DHT22;21994;48.204;16.516;2024-01-06T10:30:30;4.70;99.90
35894;DHT22;21994;48.204;16.516;2024-01-06T10:32:55;4.60;99.90
35894;DHT22;21994;48.204;16.516;2024-01-06T10:35:23;4.70;99.90
35894;DHT22;21994;48.204;16.516;2024-01-06T10:37:50;4.70;99.90
35894;DHT22;21994;48.204;16.516;2024-01-06T10:40:17;4.70;99.90
35894;DHT22;21994;48.204;16.516;2024-01-06T10:42:44;4.70;99.90
35894;DHT22;21994;48.204;16.516;2024-01-06T10:45:14;4.70;99.90
35894;DHT22;21994;48.204;16.516;2024-01-06T10:47:43;4.70;99.90
35894;DHT22;21994;48.204;16.516;2024-01-06T10:50:09;4.80;99.90
35894;DHT22;21994;48.204;16.516;2024-01-06T10:52:38;4.90;99.90
35894;DHT22;21994;48.204;16.516;2024-01-06T10:55:05;4.70;99.90
35894;DHT22;21994;48.204;16.516;2024-01-06T10:57:31;4.90;99.90
35894;DHT22;21994;48.204;16.516;2024-01-06T10:59:59;4.90;99.90
35894;DHT22;21994;48.204;16.516;2024-01-06T11:02:26;4.80;99.90
35894;DHT22;21994;48.204;16.516;2024-01-06T11:04:52;4.80;99.90
35894;DHT22;21994;48.204;16.516;2024-01-06T11:07:20;4.80;99.90
35894;DHT22;21994;48.204;16.516;2024-01-06T11:09:59;4.90;99.90
35894;DHT22;21994;48.204;16.516;2024-01-06T11:12:31;4.80;99.90
35894;DHT22;21994;48.204;16.516;2024-01-06T11:14:57;4.90;99.90
35894;DHT22;21994;48.204;16.516;2024-01-06T11:17:54;5.00;99.90
35894;DHT22;21994;48.204;16.516;2024-01-06T11:20:24;5.00;99.90
35894;DHT22;21994;48.204;16.516;2024-01-06T11:22:52;5.10;99.90
35894;DHT22;21994;48.204;16.516;2024-01-06T11:25:20;5.10;99.90
35894;DHT22;21994;48.204;16.516;2024-01-06T11:27:48;5.10;99.90
35894;DHT22;21994;48.204;16.516;2024-01-06T11:30:41;5.10;99.90
35894;DHT22;21994;48.204;16.516;2024-01-06T11:33:08;5.10;99.90
35894;DHT22;21994;48.204;16.516;2024-01-06T11:35:37;5.20;99.90
35894;DHT22;21994;48.204;16.516;2024-01-06T11:38:06;5.10;99.90
35894;DHT22;21994;48.204;16.516;2024-01-06T11:40:36;5.10;99.90
35894;DHT22;21994;48.204;16.516;2024-01-06T11:43:10;5.10;99.90
35894;DHT22;21994;48.204;16.516;2024-01-06T11:45:42;5.20;99.90
35894;DHT22;21994;48.204;16.516;2024-01-06T11:48:09;5.30;99.90
35894;DHT22;21994;48.204;16.516;2024-01-06T11:50:38;5.30;99.90
35894;DHT22;21994;48.204;16.516;2024-01-06T11:53:06;5.40;99.90
35894;DHT22;21994;48.204;16.516;2024-01-06T11:55:34;5.40;99.90
35894;DHT22;21994;48.204;16.516;2024-01-06T11:58:04;5.30;99.90
35894;DHT22;21994;48.204;16.516;2024-01-06T12:00:34;5.30;99.90
35894;DHT22;21994;48.204;16.516;2024-01-06T12:03:04;5.40;99.90
35894;DHT22;21994;48.204;16.516;2024-01-06T12:05:31;5.40;99.90
35894;DHT22;21994;48.204;16.516;2024-01-06T12:08:02;5.40;99.90
35894;DHT22;21994;48.204;16.516;2024-01-06T12:10:32;5.30;99.90
35894;DHT22;21994;48.204;16.516;2024-01-06T12:13:01;5.30;99.90
35894;DHT22;21994;48.204;16.516;2024-01-06T12:15:32;5.40;99.90
35894;DHT22;21994;48.204;16.516;2024-01-06T12:17:58;5.30;99.90
35894;DHT22;21994;48.204;16.516;2024-01-06T12:20:27;5.40;99.90
35894;DHT22;21994;48.204;16.516;2024-01-06T12:22:55;5.40;99.90
35894;DHT22;21994;48.204;16.516;2024-01-06T12:25:22;5.50;99.90
35894;DHT22;21994;48.204;16.516;2024-01-06T12:27:49;5.50;99.90
35894;DHT22;21994;48.204;16.516;2024-01-06T12:30:16;5.50;99.90
35894;DHT22;21994;48.204;16.516;2024-01-06T12:32:48;5.50;99.90
35894;DHT22;21994;48.204;16.516;2024-01-06T12:35:15;5.40;99.90
35894;DHT22;21994;48.204;16.516;2024-01-06T12:37:42;5.40;99.90
35894;DHT22;21994;48.204;16.516;2024-01-06T12:40:09;5.40;99.90
35894;DHT22;21994;48.204;16.516;2024-01-06T12:42:36;5.40;99.90
35894;DHT22;21994;48.204;16.516;2024-01-06T12:45:02;5.50;99.90
35894;DHT22;21994;48.204;16.516;2024-01-06T12:47:29;5.40;99.90
35894;DHT22;21994;48.204;16.516;2024-01-06T12:49:55;5.50;99.90
35894;DHT22;21994;48.204;16.516;2024-01-06T12:52:20;5.50;99.90
35894;DHT22;21994;48.204;16.516;2024-01-06T12:54:46;5.50;99.90
35894;DHT22;21994;48.204;16.516;2024-01-06T12:57:12;5.50;99.90
35894;DHT22;21994;48.204;16.516;2024-01-06T12:59:38;5.50;99.90
35894;DHT22;21994;48.204;16.516;2024-01-06T13:02:04;5.50;99.90
35894;DHT22;21994;48.204;16.516;2024-01-06T13:04:30;5.50;99.90
35894;DHT22;21994;48.204;16.516;2024-01-06T13:06:56;5.50;99.90
35894;DHT22;21994;48.204;16.516;2024-01-06T13:09:22;5.50;99.90
35894;DHT22;21994;48.204;16.516;2024-01-06T13:11:49;5.60;99.90
35894;DHT22;21994;48.204;16.516;2024-01-06T13:14:17;5.50;99.90
35894;DHT22;21994;48.204;16.516;2024-01-06T13:16:43;5.50;99.90
35894;DHT22;21994;48.204;16.516;2024-01-06T13:19:09;5.50;99.90
35894;DHT22;21994;48.204;16.516;2024-01-06T13:21:35;5.50;99.90
35894;DHT22;21994;48.204;16.516;2024-01-06T13:24:06;5.60;99.90
35894;DHT22;21994;48.204;16.516;2024-01-06T13:26:32;5.60;99.90
35894;DHT22;21994;48.204;16.516;2024-01-06T13:28:59;5.60;99.90
35894;DHT22;21994;48.204;16.516;2024-01-06T13:31:27;5.60;99.90
35894;DHT22;21994;48.204;16.516;2024-01-06T13:33:53;5.60;99.90
35894;DHT22;21994;48.204;16.516;2024-01-06T13:36:20;5.60;99.90
35894;DHT22;21994;48.204;16.516;2024-01-06T13:38:46;5.60;99.90
35894;DHT22;21994;48.204;16.516;2024-01-06T13:41:14;5.60;99.90
35894;DHT22;21994;48.204;16.516;2024-01-06T13:43:40;5.60;99.90
35894;DHT22;21994;48.204;16.516;2024-01-06T13:46:06;5.70;99.90
35894;DHT22;21994;48.204;16.516;2024-01-06T13:48:32;5.60;99.90
35894;DHT22;21994;48.204;16.516;2024-01-06T13:50:58;5.60;99.90
35894;DHT22;21994;48.204;16.516;2024-01-06T13:53:25;5.60;99.90
35894;DHT22;21994;48.204;16.516;2024-01-06T13:55:51;5.60;99.90
35894;DHT22;21994;48.204;16.516;2024-01-06T13:58:17;5.60;99.90
35894;DHT22;21994;48.204;16.516;2024-01-06T14:00:43;5.70;99.90
35894;DHT22;21994;48.204;16.516;2024-01-06T14:03:10;5.70;99.90
35894;DHT22;21994;48.204;16.516;2024-01-06T14:05:36;5.70;99.90
35894;DHT22;21994;48.204;16.516;2024-01-06T14:08:03;5.70;99.90
35894;DHT22;21994;48.204;16.516;2024-01-06T14:10:29;5.70;99.90
35894;DHT22;21994;48.204;16.516;2024-01-06T14:12:57;5.70;99.90
35894;DHT22;21994;48.204;16.516;2024-01-06T14:15:23;5.70;99.90
35894;DHT22;21994;48.204;16.516;2024-01-06T14:17:49;5.70;99.90
35894;DHT22;21994;48.204;16.516;2024-01-06T14:20:15;5.70;99.90
35894;DHT22;21994;48.204;16.516;2024-01-06T14:22:49;5.70;99.90
35894;DHT22;21994;48.204;16.516;2024-01-06T14:25:15;5.60;99.90
35894;DHT22;21994;48.204;16.516;2024-01-06T14:27:44;5.60;99.90
35894;DHT22;21994;48.204;16.516;2024-01-06T14:30:11;5.60;99.90
35894;DHT22;21994;48.204;16.516;2024-01-06T14:32:36;5.60;99.90
35894;DHT22;21994;48.204;16.516;2024-01-06T14:35:06;5.60;99.90
35894;DHT22;21994;48.204;16.516;2024-01-06T14:37:33;5.60;99.90
35894;DHT22;21994;48.204;16.516;2024-01-06T14:39:59;5.50;99.90
35894;DHT22;21994;48.204;16.516;2024-01-06T14:42:30;5.50;99.90
35894;DHT22;21994;48.204;16.516;2024-01-06T14:44:57;5.50;99.90
35894;DHT22;21994;48.204;16.516;2024-01-06T14:47:23;5.50;99.90
35894;DHT22;21994;48.204;16.516;2024-01-06T14:49:49;5.60;99.90
35894;DHT22;21994;48.204;16.516;2024-01-06T14:52:15;5.60;99.90
35894;DHT22;21994;48.204;16.516;2024-01-06T14:54:42;5.60;99.90
35894;DHT22;21994;48.204;16.516;2024-01-06T14:57:08;5.50;99.90
35894;DHT22;21994;48.204;16.516;2024-01-06T14:59:34;5.50;99.90
35894;DHT22;21994;48.204;16.516;2024-01-06T15:02:02;5.70;99.90
35894;DHT22;21994;48.204;16.516;2024-01-06T15:04:28;5.60;99.90
35894;DHT22;21994;48.204;16.516;2024-01-06T15:06:55;5.60;99.90
35894;DHT22;21994;48.204;16.516;2024-01-06T15:09:21;5.50;99.90
35894;DHT22;21994;48.204;16.516;2024-01-06T15:11:49;5.50;99.90
35894;DHT22;21994;48.204;16.516;2024-01-06T15:14:15;5.60;99.90
35894;DHT22;21994;48.204;16.516;2024-01-06T15:16:41;5.50;99.90
35894;DHT22;21994;48.204;16.516;2024-01-06T15:19:07;5.50;99.90
35894;DHT22;21994;48.204;16.516;2024-01-06T15:21:33;5.50;99.90
35894;DHT22;21994;48.204;16.516;2024-01-06T15:24:00;5.50;99.90
35894;DHT22;21994;48.204;16.516;2024-01-06T15:26:27;5.50;99.90
35894;DHT22;21994;48.204;16.516;2024-01-06T15:28:52;5.40;99.90
35894;DHT22;21994;48.204;16.516;2024-01-06T15:31:19;5.40;99.90
35894;DHT22;21994;48.204;16.516;2024-01-06T15:33:44;5.50;99.90
35894;DHT22;21994;48.204;16.516;2024-01-06T15:36:13;5.50;99.90